createdAt,value
2019-03-21T00:01:27.514Z,10.63
2019-03-21T00:04:00.659Z,10.00
2019-03-21T00:06:31.153Z,6.17
2019-03-21T00:09:01.777Z,5.60
2019-03-21T00:11:59.608Z,11.07
2019-03-21T00:15:05.809Z,7.33
2019-03-21T00:17:42.446Z,10.90
2019-03-21T00:20:14.963Z,8.70
2019-03-21T00:22:45.351Z,12.63
2019-03-21T00:25:18.455Z,7.20
2019-03-21T00:27:49.134Z,9.17
2019-03-21T00:30:20.967Z,7.37
2019-03-21T00:32:51.233Z,9.47
2019-03-21T00:35:21.597Z,6.67
2019-03-21T00:37:52.171Z,11.47
2019-03-21T00:40:28.499Z,12.23
2019-03-21T00:43:00.089Z,6.93
2019-03-21T00:45:30.627Z,11.93
2019-03-21T00:48:02.527Z,9.60
2019-03-21T00:50:32.830Z,8.50
2019-03-21T00:53:03.832Z,10.27
2019-03-21T00:55:35.161Z,8.33
2019-03-21T00:58:05.703Z,7.60
2019-03-21T01:00:39.500Z,11.43
2019-03-21T01:03:10.493Z,9.43
2019-03-21T01:05:41.295Z,8.63
2019-03-21T01:08:11.651Z,11.57
2019-03-21T01:10:43.551Z,9.43
2019-03-21T01:13:14.179Z,12.90
2019-03-21T01:15:44.746Z,5.57
2019-03-21T01:18:14.991Z,7.80
2019-03-21T01:20:46.646Z,10.87
2019-03-21T01:23:16.863Z,7.97
2019-03-21T01:25:51.423Z,9.97
2019-03-21T01:28:22.380Z,7.63
2019-03-21T01:30:52.529Z,9.50
2019-03-21T01:33:22.801Z,10.37
2019-03-21T01:35:54.191Z,10.77
2019-03-21T01:38:24.472Z,9.83
2019-03-21T01:40:54.621Z,12.70
2019-03-21T01:43:25.825Z,7.77
2019-03-21T01:45:56.089Z,6.30
2019-03-21T01:48:26.434Z,11.57
2019-03-21T01:50:56.658Z,9.20
2019-03-21T01:53:26.957Z,14.37
2019-03-21T01:55:57.328Z,12.70
2019-03-21T01:58:27.452Z,10.73
2019-03-21T02:00:59.741Z,7.13
2019-03-21T02:03:29.951Z,9.90
2019-03-21T02:06:00.534Z,17.00
2019-03-21T02:08:30.994Z,13.00
2019-03-21T02:11:01.619Z,18.90
2019-03-21T02:13:32.131Z,14.47
2019-03-21T02:16:02.576Z,15.23
2019-03-21T02:18:33.520Z,8.37
2019-03-21T02:21:03.944Z,10.83
2019-03-21T02:23:34.495Z,9.17
2019-03-21T02:26:04.982Z,12.17
2019-03-21T02:28:36.571Z,13.07
2019-03-21T02:31:06.952Z,13.73
2019-03-21T02:33:37.676Z,6.93
2019-03-21T02:36:08.173Z,9.80
2019-03-21T02:38:38.520Z,12.50
2019-03-21T02:41:09.341Z,11.30
2019-03-21T02:43:39.893Z,10.53
2019-03-21T02:46:10.803Z,9.63
2019-03-21T02:48:40.998Z,13.20
2019-03-21T02:51:11.339Z,18.27
2019-03-21T02:53:41.493Z,16.17
2019-03-21T02:56:13.449Z,11.33
2019-03-21T02:58:43.673Z,16.70
2019-03-21T03:01:13.886Z,15.93
2019-03-21T03:03:44.048Z,9.00
2019-03-21T03:06:14.511Z,9.30
2019-03-21T03:08:44.719Z,14.70
2019-03-21T03:11:15.975Z,12.07
2019-03-21T03:13:47.864Z,10.03
2019-03-21T03:16:19.544Z,13.03
2019-03-21T03:18:49.928Z,11.10
2019-03-21T03:21:20.087Z,16.40
2019-03-21T03:23:50.471Z,13.60
2019-03-21T03:26:21.098Z,10.50
2019-03-21T03:28:51.404Z,16.67
2019-03-21T03:31:21.606Z,10.93
2019-03-21T03:33:52.313Z,14.30
2019-03-21T03:36:22.472Z,12.90
2019-03-21T03:38:53.365Z,14.90
2019-03-21T03:41:23.944Z,11.70
2019-03-21T03:43:54.649Z,14.77
2019-03-21T03:46:25.325Z,14.93
2019-03-21T03:48:59.740Z,15.23
2019-03-21T03:51:29.838Z,13.50
2019-03-21T03:54:01.564Z,18.13
2019-03-21T03:56:31.922Z,12.80
2019-03-21T03:59:02.526Z,14.20
2019-03-21T04:01:32.634Z,14.37
2019-03-21T04:04:02.948Z,14.80
2019-03-21T04:06:33.321Z,17.40
2019-03-21T04:09:04.886Z,11.70
2019-03-21T04:11:35.105Z,11.63
2019-03-21T04:14:05.380Z,13.70
2019-03-21T04:16:35.520Z,14.83
2019-03-21T04:19:05.870Z,14.87
2019-03-21T04:21:36.169Z,14.60
2019-03-21T04:24:06.569Z,11.30
2019-03-21T04:26:37.348Z,10.73
2019-03-21T04:29:07.647Z,12.23
2019-03-21T04:31:38.024Z,17.73
2019-03-21T04:34:09.307Z,13.27
2019-03-21T04:36:39.560Z,12.60
2019-03-21T04:39:10.636Z,15.27
2019-03-21T04:41:41.979Z,12.33
2019-03-21T04:44:14.246Z,11.67
2019-03-21T04:46:44.523Z,12.77
2019-03-21T04:49:14.809Z,11.27
2019-03-21T04:51:45.299Z,11.70
2019-03-21T04:54:15.885Z,15.23
2019-03-21T04:56:46.232Z,17.00
2019-03-21T04:59:16.600Z,11.57
2019-03-21T05:01:47.074Z,15.00
2019-03-21T05:04:21.502Z,12.57
2019-03-21T05:06:52.237Z,14.13
2019-03-21T05:09:22.631Z,10.97
2019-03-21T05:11:52.935Z,12.87
2019-03-21T05:14:23.204Z,16.07
2019-03-21T05:16:53.511Z,15.90
2019-03-21T05:19:23.865Z,16.43
2019-03-21T05:21:54.151Z,13.53
2019-03-21T05:24:24.512Z,13.00
2019-03-21T05:26:54.796Z,18.37
2019-03-21T05:29:25.120Z,11.30
2019-03-21T05:31:55.455Z,17.27
2019-03-21T05:34:25.799Z,15.80
2019-03-21T05:37:14.648Z,11.63
2019-03-21T05:39:45.175Z,14.47
2019-03-21T05:42:19.620Z,15.90
2019-03-21T05:44:49.838Z,17.83
2019-03-21T05:47:20.188Z,11.57
2019-03-21T05:49:51.611Z,18.87
2019-03-21T05:52:22.115Z,14.57
2019-03-21T05:54:52.547Z,16.33
2019-03-21T05:57:22.868Z,16.30
2019-03-21T05:59:53.213Z,13.70
2019-03-21T06:02:23.562Z,22.87
2019-03-21T06:04:53.895Z,16.07
2019-03-21T06:08:08.502Z,14.40
2019-03-21T06:10:39.968Z,13.07
2019-03-21T06:13:10.404Z,18.67
2019-03-21T06:15:41.041Z,15.30
2019-03-21T06:18:36.260Z,14.37
2019-03-21T06:21:15.705Z,15.30
2019-03-21T06:24:23.467Z,11.80
2019-03-21T06:27:17.787Z,14.30
2019-03-21T06:29:48.181Z,15.13
2019-03-21T06:32:18.706Z,18.00
2019-03-21T06:34:49.084Z,13.53
2019-03-21T06:37:19.260Z,18.17
2019-03-21T06:39:50.437Z,15.63
2019-03-21T06:42:20.727Z,14.87
2019-03-21T06:44:51.051Z,13.57
2019-03-21T06:47:21.421Z,16.03
2019-03-21T06:49:52.105Z,17.00
2019-03-21T06:52:22.556Z,16.20
2019-03-21T06:54:52.747Z,13.17
2019-03-21T06:57:23.157Z,20.27
2019-03-21T06:59:53.442Z,15.73
2019-03-21T07:02:24.685Z,25.37
2019-03-21T07:04:55.043Z,20.50
2019-03-21T07:07:25.303Z,23.23
2019-03-21T07:09:55.622Z,30.97
2019-03-21T07:12:25.991Z,22.77
2019-03-21T07:14:56.143Z,29.00
2019-03-21T07:17:26.494Z,25.30
2019-03-21T07:19:56.850Z,27.73
2019-03-21T07:22:27.133Z,34.47
2019-03-21T07:24:57.506Z,33.70
2019-03-21T07:27:27.681Z,37.07
2019-03-21T07:29:58.036Z,38.67
2019-03-21T07:32:33.301Z,34.70
2019-03-21T07:35:00.409Z,31.87
2019-03-21T07:37:30.670Z,33.03
2019-03-21T07:40:00.966Z,23.67
2019-03-21T07:42:31.348Z,28.73
2019-03-21T07:45:01.620Z,30.50
2019-03-21T07:47:31.912Z,40.03
2019-03-21T07:50:02.290Z,36.97
2019-03-21T07:52:32.613Z,33.23
2019-03-21T07:55:02.873Z,38.67
2019-03-21T07:57:33.425Z,28.30
2019-03-21T08:00:03.899Z,36.97
2019-03-21T08:02:34.053Z,31.87
2019-03-21T08:05:04.930Z,28.57
2019-03-21T08:07:35.126Z,25.17
2019-03-21T08:10:06.157Z,34.10
2019-03-21T08:12:36.415Z,30.20
2019-03-21T08:15:07.761Z,37.13
2019-03-21T08:17:38.089Z,34.57
2019-03-21T08:20:10.764Z,34.63
2019-03-21T08:22:41.021Z,43.80
2019-03-21T08:25:11.537Z,29.77
2019-03-21T08:27:41.811Z,27.07
2019-03-21T08:30:26.965Z,27.27
2019-03-21T08:32:57.081Z,32.13
2019-03-21T08:35:27.180Z,21.27
2019-03-21T08:37:57.352Z,29.87
2019-03-21T08:40:27.642Z,15.87
2019-03-21T08:42:57.767Z,16.33
2019-03-21T08:45:27.892Z,19.57
2019-03-21T08:47:58.231Z,15.90
2019-03-21T08:50:28.499Z,16.03
2019-03-21T08:52:58.794Z,15.73
2019-03-21T08:55:29.072Z,17.23
2019-03-21T08:57:59.252Z,16.67
2019-03-21T09:00:34.202Z,10.50
2019-03-21T09:03:01.471Z,14.00
2019-03-21T09:05:31.723Z,16.97
2019-03-21T09:08:01.897Z,14.90
2019-03-21T09:10:50.817Z,14.23
2019-03-21T09:13:21.063Z,11.57
2019-03-21T09:15:52.396Z,13.67
2019-03-21T09:18:22.691Z,17.93
2019-03-21T09:20:52.777Z,25.83
2019-03-21T09:23:22.908Z,14.77
2019-03-21T09:25:53.121Z,18.43
2019-03-21T09:28:23.568Z,14.03
2019-03-21T09:30:53.664Z,25.10
2019-03-21T09:33:23.846Z,34.30
2019-03-21T09:35:54.157Z,29.97
2019-03-21T09:38:24.457Z,41.10
2019-03-21T09:40:54.604Z,24.50
2019-03-21T09:43:26.910Z,17.67
2019-03-21T09:45:57.107Z,15.40
2019-03-21T09:48:27.409Z,21.27
2019-03-21T09:50:57.731Z,14.53
2019-03-21T09:53:27.843Z,16.50
2019-03-21T09:55:58.140Z,20.07
2019-03-21T09:58:28.258Z,13.83
2019-03-21T10:01:00.258Z,12.83
2019-03-21T10:03:30.392Z,17.07
2019-03-21T10:06:00.781Z,22.73
2019-03-21T10:08:32.144Z,21.23
2019-03-21T10:11:02.228Z,18.63
2019-03-21T10:13:32.401Z,13.70
2019-03-21T10:16:03.518Z,10.93
2019-03-21T10:18:33.670Z,16.77
2019-03-21T10:21:03.999Z,10.93
2019-03-21T10:23:34.182Z,12.10
2019-03-21T10:26:04.407Z,11.80
2019-03-21T10:28:34.635Z,15.47
2019-03-21T10:31:04.735Z,17.80
2019-03-21T10:33:34.837Z,18.13
2019-03-21T10:36:05.097Z,16.10
2019-03-21T10:38:36.994Z,13.77
2019-03-21T10:41:08.371Z,12.30
2019-03-21T10:43:39.807Z,19.43
2019-03-21T10:46:10.142Z,12.43
2019-03-21T10:48:58.948Z,17.13
2019-03-21T10:51:30.979Z,16.47
2019-03-21T10:54:01.120Z,20.53
2019-03-21T10:56:31.296Z,13.73
2019-03-21T10:59:01.539Z,12.70
2019-03-21T11:01:31.794Z,13.17
2019-03-21T11:04:01.998Z,13.03
2019-03-21T11:06:32.110Z,10.27
2019-03-21T11:09:02.255Z,16.90
2019-03-21T11:11:32.368Z,13.67
2019-03-21T11:14:02.511Z,21.00
2019-03-21T11:16:32.688Z,16.73
2019-03-21T11:19:02.806Z,39.60
2019-03-21T11:21:32.933Z,32.53
2019-03-21T11:24:03.174Z,22.10
2019-03-21T11:26:33.315Z,13.77
2019-03-21T11:29:03.492Z,19.23
2019-03-21T11:31:33.607Z,17.77
2019-03-21T11:34:03.771Z,11.63
2019-03-21T11:36:38.604Z,11.10
2019-03-21T11:39:08.896Z,10.20
2019-03-21T11:41:39.039Z,16.63
2019-03-21T11:44:09.145Z,12.90
2019-03-21T11:46:39.330Z,15.30
2019-03-21T11:49:09.474Z,8.47
2019-03-21T11:51:39.589Z,9.53
2019-03-21T11:54:09.718Z,10.70
2019-03-21T11:56:39.972Z,14.97
2019-03-21T11:59:10.294Z,15.80
2019-03-21T12:01:40.619Z,13.87
2019-03-21T12:04:10.815Z,13.07
2019-03-21T12:06:42.404Z,10.40
2019-03-21T12:09:12.691Z,13.00
2019-03-21T12:11:42.812Z,9.60
2019-03-21T12:14:13.073Z,17.63
2019-03-21T12:16:43.371Z,13.53
2019-03-21T12:19:13.491Z,13.00
2019-03-21T12:21:43.728Z,14.80
2019-03-21T12:24:15.187Z,14.27
2019-03-21T12:26:45.546Z,9.00
2019-03-21T12:29:16.714Z,9.37
2019-03-21T12:31:47.980Z,14.40
2019-03-21T12:34:18.238Z,13.67
2019-03-21T12:36:48.501Z,12.70
2019-03-21T12:39:18.621Z,11.47
2019-03-21T12:41:48.738Z,8.03
2019-03-21T12:44:18.921Z,9.97
2019-03-21T12:46:49.215Z,12.57
2019-03-21T12:49:19.511Z,12.30
2019-03-21T12:51:49.625Z,14.10
2019-03-21T12:54:19.962Z,7.77
2019-03-21T12:56:52.873Z,12.20
2019-03-21T12:59:21.985Z,5.47
2019-03-21T13:01:52.239Z,9.33
2019-03-21T13:04:22.493Z,10.37
2019-03-21T13:06:52.632Z,13.33
2019-03-21T13:09:22.960Z,15.20
2019-03-21T13:11:53.240Z,11.53
2019-03-21T13:14:23.375Z,13.13
2019-03-21T13:16:54.488Z,15.40
2019-03-21T13:19:24.628Z,10.23
2019-03-21T13:21:54.744Z,10.47
2019-03-21T13:24:24.876Z,8.93
2019-03-21T13:26:55.001Z,8.67
2019-03-21T13:29:25.306Z,12.50
2019-03-21T13:31:55.609Z,5.30
2019-03-21T13:34:44.449Z,4.47
2019-03-21T13:37:15.525Z,6.37
2019-03-21T13:40:04.484Z,10.77
2019-03-21T13:42:46.065Z,11.43
2019-03-21T13:45:16.248Z,5.83
2019-03-21T13:47:46.525Z,5.20
2019-03-21T13:50:18.961Z,6.90
2019-03-21T13:52:49.231Z,7.17
2019-03-21T13:55:19.338Z,4.47
2019-03-21T13:57:49.473Z,4.93
2019-03-21T14:00:21.336Z,5.07
2019-03-21T14:02:51.603Z,6.40
2019-03-21T14:05:21.871Z,10.03
2019-03-21T14:07:52.015Z,6.43
2019-03-21T14:10:22.115Z,5.37
2019-03-21T14:12:52.271Z,5.80
2019-03-21T14:15:22.657Z,9.67
2019-03-21T14:17:52.993Z,6.10
2019-03-21T14:20:23.213Z,6.67
2019-03-21T14:22:53.329Z,7.53
2019-03-21T14:25:23.779Z,8.40
2019-03-21T14:27:53.867Z,7.77
2019-03-21T14:30:24.003Z,6.80
2019-03-21T14:32:54.139Z,6.83
2019-03-21T14:35:24.205Z,7.50
2019-03-21T14:37:54.483Z,7.40
2019-03-21T14:40:24.571Z,5.23
2019-03-21T14:42:54.808Z,8.80
2019-03-21T14:45:24.915Z,8.70
2019-03-21T14:47:55.018Z,6.70
2019-03-21T14:50:25.170Z,6.80
2019-03-21T14:52:55.279Z,4.53
2019-03-21T14:55:25.382Z,4.93
2019-03-21T14:57:55.491Z,5.90
2019-03-21T15:00:25.673Z,11.80
2019-03-21T15:02:58.632Z,8.63
2019-03-21T15:05:28.788Z,5.83
2019-03-21T15:07:59.084Z,7.63
2019-03-21T15:10:29.170Z,5.27
2019-03-21T15:12:59.341Z,8.73
2019-03-21T15:15:48.165Z,8.27
2019-03-21T15:18:18.460Z,7.73
2019-03-21T15:20:48.722Z,10.53
2019-03-21T15:23:18.938Z,10.07
2019-03-21T15:25:49.168Z,8.70
2019-03-21T15:28:19.595Z,7.87
2019-03-21T15:30:49.717Z,9.13
2019-03-21T15:33:19.841Z,6.10
2019-03-21T15:35:50.039Z,7.33
2019-03-21T15:38:20.211Z,3.87
2019-03-21T15:40:50.460Z,5.60
2019-03-21T15:43:20.615Z,9.00
2019-03-21T15:45:50.698Z,4.53
2019-03-21T15:48:21.166Z,26.27
2019-03-21T15:51:03.533Z,17.90
2019-03-21T15:53:23.531Z,14.17
2019-03-21T15:55:53.675Z,26.83
2019-03-21T15:58:23.756Z,9.73
2019-03-21T16:00:58.443Z,17.30
2019-03-21T16:03:39.505Z,10.03
2019-03-21T16:06:09.774Z,9.60
2019-03-21T16:08:39.908Z,10.67
2019-03-21T16:11:10.063Z,4.37
2019-03-21T16:13:40.168Z,7.77
2019-03-21T16:16:10.273Z,5.83
2019-03-21T16:18:40.452Z,7.60
2019-03-21T16:21:10.720Z,6.20
2019-03-21T16:23:40.830Z,12.47
2019-03-21T16:26:10.972Z,6.70
2019-03-21T16:28:41.073Z,4.73
2019-03-21T16:31:11.226Z,4.37
2019-03-21T16:33:43.432Z,6.47
2019-03-21T16:36:13.085Z,6.27
2019-03-21T16:38:43.221Z,6.37
2019-03-21T16:41:13.339Z,9.37
2019-03-21T16:43:43.533Z,7.60
2019-03-21T16:46:13.751Z,9.60
2019-03-21T16:48:43.913Z,9.97
2019-03-21T16:51:14.030Z,5.83
2019-03-21T16:53:44.151Z,7.77
2019-03-21T16:56:14.352Z,7.50
2019-03-21T16:58:44.480Z,9.70
2019-03-21T17:01:14.586Z,13.43
2019-03-21T17:03:44.704Z,6.40
2019-03-21T17:06:14.856Z,7.40
2019-03-21T17:08:45.035Z,6.13
2019-03-21T17:11:15.175Z,4.93
2019-03-21T17:13:45.289Z,6.47
2019-03-21T17:16:15.527Z,7.40
2019-03-21T17:18:45.652Z,13.57
2019-03-21T17:21:15.786Z,7.80
2019-03-21T17:23:45.904Z,13.87
2019-03-21T17:26:16.142Z,7.17
2019-03-21T17:28:46.280Z,12.50
2019-03-21T17:31:16.431Z,10.90
2019-03-21T17:33:46.558Z,13.63
2019-03-21T17:36:16.700Z,10.00
2019-03-21T17:38:46.921Z,11.90
2019-03-21T17:41:17.413Z,17.87
2019-03-21T17:43:47.620Z,15.47
2019-03-21T17:46:17.769Z,26.10
2019-03-21T17:48:47.878Z,18.27
2019-03-21T17:51:18.132Z,15.93
2019-03-21T17:53:48.240Z,14.50
2019-03-21T17:56:18.357Z,18.17
2019-03-21T17:58:48.674Z,10.77
2019-03-21T18:01:19.163Z,14.30
2019-03-21T18:03:51.200Z,10.60
2019-03-21T18:06:32.316Z,10.07
2019-03-21T18:09:04.453Z,10.87
2019-03-21T18:11:34.890Z,10.90
2019-03-21T18:14:05.284Z,9.50
2019-03-21T18:16:37.230Z,13.07
2019-03-21T18:19:08.611Z,11.43
2019-03-21T18:21:38.939Z,12.80
2019-03-21T18:24:09.335Z,8.67
2019-03-21T18:26:41.023Z,14.40
2019-03-21T18:29:11.560Z,9.33
2019-03-21T18:31:42.110Z,11.50
2019-03-21T18:34:12.357Z,8.37
2019-03-21T18:36:44.692Z,10.30
2019-03-21T18:39:18.376Z,9.43
2019-03-21T18:41:48.927Z,9.73
2019-03-21T18:44:19.168Z,6.37
2019-03-21T18:46:50.457Z,7.80
2019-03-21T18:49:20.902Z,8.90
2019-03-21T18:51:51.375Z,11.10
2019-03-21T18:54:21.678Z,9.77
2019-03-21T18:56:54.491Z,14.07
2019-03-21T18:59:25.884Z,15.17
2019-03-21T19:01:58.950Z,10.67
2019-03-21T19:04:32.839Z,13.20
2019-03-21T19:07:03.377Z,14.77
2019-03-21T19:09:33.811Z,10.57
2019-03-21T19:12:04.097Z,14.13
2019-03-21T19:14:34.348Z,16.30
2019-03-21T19:17:06.888Z,13.23
2019-03-21T19:19:37.167Z,17.97
2019-03-21T19:22:08.912Z,10.93
2019-03-21T19:24:39.169Z,11.43
2019-03-21T19:27:09.458Z,8.33
2019-03-21T19:29:39.604Z,7.80
2019-03-21T19:32:09.800Z,12.50
2019-03-21T19:34:39.932Z,14.17
2019-03-21T19:37:10.139Z,10.43
2019-03-21T19:39:40.356Z,10.23
2019-03-21T19:42:10.522Z,16.43
2019-03-21T19:44:41.417Z,13.47
2019-03-21T19:47:22.782Z,10.03
2019-03-21T19:49:43.496Z,10.27
2019-03-21T19:52:13.627Z,8.93
2019-03-21T19:54:43.816Z,8.47
2019-03-21T19:57:14.277Z,9.77
2019-03-21T19:59:44.489Z,10.83
2019-03-21T20:02:15.680Z,14.17
2019-03-21T20:04:48.282Z,7.87
2019-03-21T20:07:17.902Z,8.17
2019-03-21T20:09:48.134Z,11.23
2019-03-21T20:12:18.357Z,10.27
2019-03-21T20:14:48.495Z,11.67
2019-03-21T20:17:22.065Z,9.93
2019-03-21T20:19:53.353Z,11.50
2019-03-21T20:22:23.986Z,9.50
2019-03-21T20:24:54.308Z,11.47
2019-03-21T20:27:24.431Z,12.53
2019-03-21T20:29:55.839Z,15.43
2019-03-21T20:32:27.348Z,15.20
2019-03-21T20:34:57.423Z,13.67
2019-03-21T20:37:27.857Z,13.30
2019-03-21T20:39:58.143Z,13.53
2019-03-21T20:42:28.433Z,12.00
2019-03-21T20:44:58.800Z,14.00
2019-03-21T20:47:29.669Z,12.87
2019-03-21T20:50:00.065Z,14.47
2019-03-21T20:52:30.338Z,17.57
2019-03-21T20:55:00.522Z,15.90
2019-03-21T20:57:30.535Z,10.77
2019-03-21T21:00:00.701Z,14.00
2019-03-21T21:02:30.908Z,14.03
2019-03-21T21:05:01.301Z,14.27
2019-03-21T21:07:31.486Z,12.07
2019-03-21T21:10:02.111Z,12.87
2019-03-21T21:12:32.481Z,11.30
2019-03-21T21:15:02.665Z,15.00
2019-03-21T21:17:32.976Z,16.67
2019-03-21T21:20:03.292Z,14.73
2019-03-21T21:22:33.386Z,10.97
2019-03-21T21:25:03.952Z,12.17
2019-03-21T21:27:34.259Z,9.90
2019-03-21T21:30:05.733Z,16.57
2019-03-21T21:32:36.144Z,8.97
2019-03-21T21:35:07.821Z,8.97
2019-03-21T21:37:38.789Z,9.70
2019-03-21T21:40:09.851Z,8.63
2019-03-21T21:42:39.967Z,12.90
2019-03-21T21:45:10.557Z,16.00
2019-03-21T21:47:40.873Z,10.83
2019-03-21T21:50:11.791Z,16.43
2019-03-21T21:52:42.511Z,14.37
2019-03-21T21:55:13.041Z,12.00
2019-03-21T21:57:43.256Z,12.10
2019-03-21T22:00:15.657Z,14.43
2019-03-21T22:02:45.920Z,13.20
2019-03-21T22:05:16.189Z,10.77
2019-03-21T22:07:46.791Z,14.67
2019-03-21T22:10:17.047Z,13.27
2019-03-21T22:12:47.239Z,12.10
2019-03-21T22:15:18.143Z,7.63
2019-03-21T22:17:48.556Z,11.40
2019-03-21T22:20:18.955Z,10.77
2019-03-21T22:22:49.255Z,14.80
2019-03-21T22:25:19.374Z,11.20
2019-03-21T22:27:49.534Z,10.33
2019-03-21T22:30:20.208Z,11.27
2019-03-21T22:32:50.483Z,14.47
2019-03-21T22:35:23.748Z,10.97
2019-03-21T22:37:53.853Z,12.27
2019-03-21T22:40:24.008Z,40.90
2019-03-21T22:42:54.154Z,14.73
2019-03-21T22:45:24.453Z,12.97
2019-03-21T22:47:54.608Z,11.30
2019-03-21T22:50:24.914Z,11.63
2019-03-21T22:52:55.307Z,13.77
2019-03-21T22:55:25.544Z,10.97
2019-03-21T22:57:55.648Z,10.40
2019-03-21T23:00:34.868Z,12.33
2019-03-21T23:03:05.325Z,6.67
2019-03-21T23:05:35.423Z,11.90
2019-03-21T23:08:05.608Z,13.37
2019-03-21T23:10:35.963Z,9.30
2019-03-21T23:13:06.218Z,11.53
2019-03-21T23:15:36.327Z,15.73
2019-03-21T23:18:06.759Z,12.43
2019-03-21T23:20:36.999Z,11.33
2019-03-21T23:23:07.315Z,10.27
2019-03-21T23:25:37.400Z,10.53
2019-03-21T23:28:07.559Z,12.43
2019-03-21T23:30:37.849Z,11.90
2019-03-21T23:33:09.021Z,15.57
2019-03-21T23:35:39.147Z,18.30
2019-03-21T23:38:09.439Z,12.03
2019-03-21T23:40:39.643Z,11.00
2019-03-21T23:43:09.867Z,15.10
2019-03-21T23:45:39.993Z,12.10
2019-03-21T23:48:10.185Z,16.30
2019-03-21T23:50:40.556Z,11.30
2019-03-21T23:53:10.760Z,10.63
2019-03-21T23:55:40.932Z,9.60
2019-03-21T23:58:11.202Z,14.50
